Terminal Aerodrome Forecast
Issued by NWS

Home | Current Version | Previous Version | Text Only | Print | Product List | Glossary On
Versions: 1 2 3 4 5 6 7 8 9 10 11 12 13 14 15
000
FTUS42 KFFC 010520
TAFPDK
TAF
KPDK 010520Z 0106/0206 VRB03KT P6SM BKN150
     FM011400 14004KT P6SM SCT025 BKN050
     FM011800 17006KT P6SM VCSH OVC025
     FM012000 17007KT 5SM -RA BR OVC015
     FM012300 16007KT 2SM -RA BR OVC007
     FM020400 23012KT 2SM -RA BR OVC004=

USA.gov is the U.S. government's official web portal to all federal, state and local government web resources and services.